Time;durP1;ratioP1;P1;durP2;ratioP2;P2;SDS_P1;SDS_P2;PMS_P1;PMS_P2;Temp;Humidity;BMP_temperature;BMP_pressure;BME280_temperature;BME280_humidity;BME280_pressure;Samples;Min_cycle;Max_cycle;Signal;HPM_P1;HPM_P2
2023/01/15 00:04:03;;;;;;;7.10;3.97;;;0.10;99.90;;;;;;20935859;28;20241;-59
2023/01/15 00:14:04;;;;;;;8.45;4.68;;;0.20;99.90;;;;;;20991651;28;20078;-59
2023/01/15 00:34:29;;;;;;;10.38;5.70;;;0.10;99.90;;;;;;20906480;28;20390;-61
2023/01/15 00:44:32;;;;;;;10.90;5.85;;;0.00;99.90;;;;;;20874227;28;20090;-59
2023/01/15 00:54:34;;;;;;;7.20;4.05;;;0.00;99.90;;;;;;20904621;28;20063;-60
2023/01/15 01:04:35;;;;;;;7.78;4.22;;;0.10;99.90;;;;;;20941019;28;20047;-59
2023/01/15 01:14:37;;;;;;;7.35;4.32;;;0.20;99.90;;;;;;20970283;28;20033;-60
2023/01/15 01:24:39;;;;;;;8.25;4.45;;;0.40;99.90;;;;;;20952669;28;20045;-59
2023/01/15 01:34:41;;;;;;;7.82;3.92;;;0.50;99.90;;;;;;20934672;28;20029;-59
2023/01/15 01:44:43;;;;;;;5.88;3.17;;;0.60;99.90;;;;;;20884754;28;20029;-59
2023/01/15 01:54:46;;;;;;;5.18;3.08;;;0.80;99.90;;;;;;20981995;28;20124;-60
2023/01/15 02:04:48;;;;;;;4.55;2.50;;;0.90;99.90;;;;;;20927422;28;20045;-59
2023/01/15 02:15:27;;;;;;;5.32;2.85;;;0.90;99.90;;;;;;20966501;28;20033;-59
2023/01/15 02:26:18;;;;;;;4.53;2.53;;;1.00;99.90;;;;;;20630166;28;20054;-59
2023/01/15 02:36:23;;;;;;;5.40;3.55;;;1.10;99.90;;;;;;20390273;28;20596;-59
2023/01/15 02:46:29;;;;;;;6.55;3.95;;;1.20;99.90;;;;;;20390095;29;20155;-59
2023/01/15 02:56:34;;;;;;;6.10;3.92;;;1.30;99.90;;;;;;20442386;28;20451;-58
2023/01/15 03:06:39;;;;;;;5.28;4.00;;;1.30;99.90;;;;;;20880093;28;20056;-59
2023/01/15 03:16:52;;;;;;;8.23;4.65;;;1.00;99.90;;;;;;20994344;28;20032;-59
2023/01/15 03:26:54;;;;;;;8.65;4.65;;;1.00;99.90;;;;;;20927425;28;20386;-59
2023/01/15 03:36:57;;;;;;;8.55;5.03;;;1.10;99.90;;;;;;20926381;28;20037;-59
2023/01/15 03:47:29;;;;;;;9.98;5.60;;;1.20;99.90;;;;;;20908432;28;20115;-59
2023/01/15 03:57:41;;;;;;;9.90;5.68;;;1.20;99.90;;;;;;20637141;28;20084;-59
2023/01/15 04:07:44;;;;;;;11.23;6.37;;;1.30;99.90;;;;;;20654216;28;20104;-59
2023/01/15 04:17:47;;;;;;;13.70;7.13;;;1.30;99.90;;;;;;20653992;28;20460;-59
2023/01/15 04:27:49;;;;;;;8.93;5.38;;;1.40;99.90;;;;;;20712352;28;20102;-59
2023/01/15 04:37:57;;;;;;;10.30;6.55;;;1.30;99.90;;;;;;20875172;28;20037;-59
2023/01/15 04:47:59;;;;;;;11.32;6.57;;;1.40;99.90;;;;;;20848382;28;20040;-59
2023/01/15 04:58:01;;;;;;;10.77;6.18;;;1.30;99.90;;;;;;20862408;28;20071;-58
2023/01/15 05:08:02;;;;;;;9.90;5.70;;;1.20;99.90;;;;;;20951791;28;20067;-59
2023/01/15 05:18:04;;;;;;;8.20;5.20;;;1.20;99.90;;;;;;20986565;28;20423;-59
2023/01/15 05:28:05;;;;;;;10.73;6.72;;;1.40;99.90;;;;;;20943330;28;20045;-59
2023/01/15 05:38:07;;;;;;;10.57;6.55;;;1.30;99.90;;;;;;20903341;28;20063;-59
2023/01/15 05:48:09;;;;;;;12.65;7.78;;;1.30;99.90;;;;;;20928007;28;20041;-59
2023/01/15 05:58:10;;;;;;;8.98;5.95;;;1.20;99.90;;;;;;20962196;28;20045;-59
2023/01/15 06:08:12;;;;;;;13.10;8.23;;;1.20;99.90;;;;;;20905605;28;20394;-59
2023/01/15 06:18:13;;;;;;;22.88;9.65;;;1.10;99.90;;;;;;20933602;28;20431;-59
2023/01/15 06:28:15;;;;;;;13.07;6.43;;;1.00;99.90;;;;;;20927287;28;20041;-59
2023/01/15 06:38:17;;;;;;;15.75;9.88;;;1.10;99.90;;;;;;20948746;28;20366;-59
2023/01/15 06:48:18;;;;;;;13.65;7.00;;;1.10;99.90;;;;;;20942568;28;20033;-59
2023/01/15 06:58:22;;;;;;;13.60;7.20;;;1.10;99.90;;;;;;20940779;28;20094;-59
2023/01/15 07:08:24;;;;;;;14.25;7.10;;;1.10;99.90;;;;;;20982302;28;20089;-59
2023/01/15 07:18:27;;;;;;;16.08;9.23;;;1.20;99.90;;;;;;20969062;28;20357;-59
2023/01/15 07:28:29;;;;;;;13.25;8.65;;;1.30;99.90;;;;;;20912537;28;20583;-59
2023/01/15 07:38:31;;;;;;;12.88;6.45;;;1.20;99.90;;;;;;20911112;28;20029;-59
2023/01/15 07:58:53;;;;;;;21.27;11.90;;;1.50;99.90;;;;;;20862417;28;20045;-58
2023/01/15 08:08:54;;;;;;;261.25;25.27;;;1.60;99.90;;;;;;20891639;28;20083;-59
2023/01/15 08:18:56;;;;;;;12.65;6.25;;;1.60;99.90;;;;;;20938474;28;20376;-58
2023/01/15 08:28:58;;;;;;;10.93;6.38;;;1.90;99.90;;;;;;20908296;28;20033;-60
2023/01/15 08:38:59;;;;;;;9.63;5.90;;;2.40;99.90;;;;;;20938817;28;20080;-62
2023/01/15 08:49:01;;;;;;;9.32;5.28;;;2.60;99.90;;;;;;20920896;28;20044;-60
2023/01/15 08:59:07;;;;;;;8.23;4.28;;;2.80;99.90;;;;;;20925534;28;20045;-59
2023/01/15 09:09:09;;;;;;;8.15;4.22;;;3.00;99.90;;;;;;20962176;28;20078;-59
2023/01/15 09:19:11;;;;;;;3.50;2.20;;;3.00;99.90;;;;;;20987598;28;20032;-59
2023/01/15 09:29:13;;;;;;;1.88;1.30;;;3.30;99.90;;;;;;20986246;28;20075;-59
2023/01/15 09:39:15;;;;;;;5.18;1.75;;;3.70;99.90;;;;;;20909604;28;20033;-59
2023/01/15 10:01:36;;;;;;;3.15;1.50;;;4.20;99.90;;;;;;20930727;28;20394;-59
2023/01/15 10:22:57;;;;;;;235.65;18.67;;;4.60;99.90;;;;;;21000258;28;20029;-58
2023/01/15 10:33:11;;;;;;;115.72;16.60;;;4.60;99.90;;;;;;20999150;28;20063;-59
2023/01/15 10:43:27;;;;;;;672.97;33.95;;;3.60;99.90;;;;;;20922877;28;20033;-58
2023/01/15 10:53:50;;;;;;;12.65;7.72;;;2.90;99.90;;;;;;20945093;28;20037;-59
2023/01/15 11:03:53;;;;;;;484.17;25.70;;;2.80;99.90;;;;;;20944972;28;20078;-59
2023/01/15 11:24:17;;;;;;;10.80;6.65;;;2.70;99.90;;;;;;20995530;28;20037;-60
2023/01/15 11:34:21;;;;;;;102.57;10.63;;;2.70;99.90;;;;;;20992718;28;20028;-60
2023/01/15 11:54:48;;;;;;;3.80;2.40;;;3.90;99.90;;;;;;20910652;28;20036;-60
2023/01/15 12:04:57;;;;;;;173.25;7.90;;;3.60;99.90;;;;;;20948356;28;20037;-60
2023/01/15 12:15:11;;;;;;;5.80;3.58;;;3.10;99.90;;;;;;20991261;28;20078;-60
2023/01/15 12:25:31;;;;;;;349.90;13.65;;;3.20;99.90;;;;;;20990211;28;20044;-60
2023/01/15 12:35:47;;;;;;;4.67;2.97;;;3.50;99.90;;;;;;20977048;28;20048;-60
2023/01/15 12:45:52;;;;;;;4.20;1.67;;;3.50;99.90;;;;;;20904841;28;20029;-60
2023/01/15 12:56:09;;;;;;;908.83;31.25;;;3.50;99.90;;;;;;20905573;28;20125;-60
2023/01/15 13:06:13;;;;;;;211.38;8.63;;;3.30;99.90;;;;;;20905394;28;20033;-60
2023/01/15 13:16:32;;;;;;;112.05;7.75;;;3.10;99.90;;;;;;20903851;28;20029;-60
2023/01/15 13:26:53;;;;;;;3.25;1.58;;;3.30;99.90;;;;;;20903627;28;20072;-60
2023/01/15 13:37:17;;;;;;;342.83;13.88;;;3.40;99.90;;;;;;20904324;28;20127;-60
2023/01/15 13:47:26;;;;;;;220.70;8.98;;;3.50;99.90;;;;;;20921701;28;20074;-60
2023/01/15 13:57:36;;;;;;;149.98;7.05;;;3.70;99.90;;;;;;20985854;28;20052;-60
2023/01/15 14:07:38;;;;;;;8.83;2.63;;;3.60;99.90;;;;;;20984592;28;20066;-60
2023/01/15 14:18:17;;;;;;;8.95;3.33;;;3.20;99.90;;;;;;20976129;28;20037;-60
2023/01/15 14:28:42;;;;;;;67.90;4.03;;;3.40;99.90;;;;;;20985110;28;20067;-60
2023/01/15 14:38:48;;;;;;;65.43;3.83;;;3.10;99.90;;;;;;20916958;28;20032;-59
2023/01/15 14:48:50;;;;;;;91.28;6.15;;;3.00;99.90;;;;;;20915482;28;20033;-60
2023/01/15 14:59:04;;;;;;;2.35;1.13;;;2.90;99.90;;;;;;20915129;28;20044;-60
2023/01/15 15:09:12;;;;;;;2.35;1.60;;;2.90;99.90;;;;;;20987856;28;20412;-60
2023/01/15 15:19:44;;;;;;;597.13;20.40;;;3.30;99.90;;;;;;20996622;28;20093;-60
2023/01/15 15:29:46;;;;;;;4.60;2.78;;;3.20;99.90;;;;;;20994590;28;20074;-60
2023/01/15 15:40:00;;;;;;;9.27;3.85;;;2.80;99.90;;;;;;20946559;28;20025;-60
2023/01/15 15:50:02;;;;;;;6.05;3.95;;;3.00;99.90;;;;;;20950077;28;20036;-60
2023/01/15 16:00:14;;;;;;;48.80;6.03;;;3.30;99.90;;;;;;20975523;28;20078;-60
2023/01/15 16:10:22;;;;;;;195.05;9.27;;;3.10;99.90;;;;;;20911936;28;20033;-60
2023/01/15 16:20:25;;;;;;;5.07;1.92;;;2.90;99.90;;;;;;20907865;28;20151;-61
2023/01/15 16:30:31;;;;;;;212.93;10.02;;;2.70;99.90;;;;;;20893666;28;20036;-60
2023/01/15 16:40:38;;;;;;;443.65;13.25;;;2.90;99.90;;;;;;20932581;28;20029;-60
2023/01/15 16:50:41;;;;;;;87.38;3.90;;;2.80;99.90;;;;;;20888227;28;20040;-60
2023/01/15 17:00:54;;;;;;;78.10;3.85;;;2.60;99.90;;;;;;20905184;28;20498;-60
2023/01/15 17:10:59;;;;;;;563.90;17.27;;;2.50;99.90;;;;;;20904458;28;20934;-59
2023/01/15 17:21:01;;;;;;;624.50;22.30;;;2.50;99.90;;;;;;20903834;28;20086;-59
2023/01/15 17:31:03;;;;;;;585.10;17.90;;;2.50;99.90;;;;;;20902967;28;20033;-59
2023/01/15 17:41:07;;;;;;;526.28;15.77;;;2.40;99.90;;;;;;20903297;28;20021;-59
2023/01/15 17:51:13;;;;;;;401.02;12.70;;;2.40;99.90;;;;;;20902761;28;20029;-59
2023/01/15 18:11:46;;;;;;;;;;;2.40;99.90;;;;;;20987679;28;20443;-59
2023/01/15 18:21:47;;;;;;;794.95;24.17;;;2.40;99.90;;;;;;21001277;28;20339;-59
2023/01/15 18:31:49;;;;;;;391.75;13.25;;;2.30;99.90;;;;;;20999675;28;20469;-59
2023/01/15 19:02:18;;;;;;;33.28;1.50;;;1.70;99.90;;;;;;20933404;28;20044;-59
2023/01/15 19:12:20;;;;;;;108.97;3.35;;;1.50;99.90;;;;;;20998527;28;20029;-59
2023/01/15 19:32:41;;;;;;;0.33;0.20;;;1.50;99.90;;;;;;20995140;28;20194;-59
2023/01/15 19:53:04;;;;;;;8.50;1.10;;;1.70;99.90;;;;;;20941074;28;20037;-59
2023/01/15 20:03:09;;;;;;;6.20;0.47;;;1.60;99.90;;;;;;20935818;28;20052;-59
2023/01/15 20:23:35;;;;;;;0.35;0.10;;;1.10;99.90;;;;;;20991091;28;20070;-59
2023/01/15 20:33:37;;;;;;;0.20;0.10;;;0.90;99.90;;;;;;20989504;28;20029;-58
2023/01/15 20:53:59;;;;;;;0.00;0.00;;;0.80;99.90;;;;;;20936051;28;20048;-57
2023/01/15 21:04:01;;;;;;;0.00;0.00;;;0.80;99.90;;;;;;20937017;28;20429;-58
2023/01/15 21:14:03;;;;;;;0.00;0.00;;;0.80;99.90;;;;;;20987504;28;20029;-57
2023/01/15 21:24:04;;;;;;;0.00;0.00;;;0.90;99.90;;;;;;20986743;28;20028;-58
2023/01/15 21:34:06;;;;;;;0.00;0.00;;;1.00;99.90;;;;;;20986430;28;20308;-59
2023/01/15 21:44:30;;;;;;;0.00;0.00;;;1.00;99.90;;;;;;20903387;28;20090;-58
2023/01/15 21:54:32;;;;;;;0.05;0.00;;;1.00;99.90;;;;;;20902729;28;20482;-59
2023/01/15 22:04:35;;;;;;;0.08;0.03;;;0.90;99.90;;;;;;20907896;28;20029;-59
2023/01/15 22:14:36;;;;;;;0.00;0.00;;;0.80;99.90;;;;;;20901953;28;20082;-59
2023/01/15 22:24:40;;;;;;;0.00;0.00;;;0.90;99.90;;;;;;20979744;28;20051;-57
2023/01/15 22:34:42;;;;;;;0.00;0.00;;;0.90;99.90;;;;;;20978280;28;20087;-59
2023/01/15 22:44:44;;;;;;;0.10;0.10;;;0.90;99.90;;;;;;20899920;28;20486;-59
2023/01/15 22:54:46;;;;;;;0.40;0.20;;;0.90;99.90;;;;;;20929243;28;20048;-59
2023/01/15 23:04:47;;;;;;;0.10;0.10;;;0.80;99.90;;;;;;20951180;28;20032;-59
2023/01/15 23:14:49;;;;;;;0.08;0.00;;;0.80;99.90;;;;;;20996931;28;20024;-59
2023/01/15 23:24:51;;;;;;;0.20;0.10;;;0.80;99.90;;;;;;20995911;28;20044;-59
2023/01/15 23:34:52;;;;;;;0.10;0.00;;;0.70;99.90;;;;;;20970534;28;20037;-59
2023/01/15 23:55:14;;;;;;;0.10;0.00;;;0.70;99.90;;;;;;20882183;28;20094;-59
